sensor_id;sensor_type;location;lat;lon;timestamp;P1;durP1;ratioP1;P2;durP2;ratioP2
73675;SDS011;61975;48.660;10.164;2022-09-09T00:00:23;4.93;;;2.10;;
73675;SDS011;61975;48.660;10.164;2022-09-09T00:03:02;5.78;;;2.20;;
73675;SDS011;61975;48.660;10.164;2022-09-09T00:08:18;3.38;;;1.80;;
73675;SDS011;61975;48.660;10.164;2022-09-09T00:10:45;8.50;;;2.10;;
73675;SDS011;61975;48.660;10.164;2022-09-09T00:13:32;4.57;;;1.90;;
73675;SDS011;61975;48.660;10.164;2022-09-09T00:16:08;6.90;;;1.90;;
73675;SDS011;61975;48.660;10.164;2022-09-09T00:23:51;4.03;;;1.70;;
73675;SDS011;61975;48.660;10.164;2022-09-09T00:31:47;5.63;;;1.80;;
73675;SDS011;61975;48.660;10.164;2022-09-09T00:36:46;3.28;;;1.80;;
73675;SDS011;61975;48.660;10.164;2022-09-09T00:39:34;4.30;;;1.53;;
73675;SDS011;61975;48.660;10.164;2022-09-09T00:49:59;3.65;;;2.00;;
73675;SDS011;61975;48.660;10.164;2022-09-09T00:52:43;4.95;;;2.13;;
73675;SDS011;61975;48.660;10.164;2022-09-09T00:57:52;3.58;;;1.80;;
73675;SDS011;61975;48.660;10.164;2022-09-09T01:05:44;4.85;;;1.70;;
73675;SDS011;61975;48.660;10.164;2022-09-09T01:08:15;3.40;;;1.70;;
73675;SDS011;61975;48.660;10.164;2022-09-09T01:11:01;5.22;;;1.70;;
73675;SDS011;61975;48.660;10.164;2022-09-09T01:13:34;5.72;;;1.60;;
73675;SDS011;61975;48.660;10.164;2022-09-09T01:16:01;3.47;;;1.53;;
73675;SDS011;61975;48.660;10.164;2022-09-09T01:18:30;5.15;;;2.00;;
73675;SDS011;61975;48.660;10.164;2022-09-09T01:26:50;6.53;;;1.70;;
73675;SDS011;61975;48.660;10.164;2022-09-09T01:29:20;3.87;;;1.70;;
73675;SDS011;61975;48.660;10.164;2022-09-09T01:34:17;3.47;;;1.77;;
73675;SDS011;61975;48.660;10.164;2022-09-09T01:39:12;4.70;;;1.80;;
73675;SDS011;61975;48.660;10.164;2022-09-09T01:41:38;3.47;;;1.63;;
73675;SDS011;61975;48.660;10.164;2022-09-09T01:44:04;4.00;;;2.00;;
73675;SDS011;61975;48.660;10.164;2022-09-09T01:46:31;6.22;;;1.70;;
73675;SDS011;61975;48.660;10.164;2022-09-09T01:48:56;4.82;;;1.83;;
73675;SDS011;61975;48.660;10.164;2022-09-09T01:51:23;4.90;;;1.83;;
73675;SDS011;61975;48.660;10.164;2022-09-09T01:53:49;5.57;;;1.80;;
73675;SDS011;61975;48.660;10.164;2022-09-09T02:04:13;3.22;;;1.73;;
73675;SDS011;61975;48.660;10.164;2022-09-09T02:06:53;8.03;;;1.97;;
73675;SDS011;61975;48.660;10.164;2022-09-09T02:09:22;3.92;;;1.75;;
73675;SDS011;61975;48.660;10.164;2022-09-09T02:11:53;6.15;;;1.80;;
73675;SDS011;61975;48.660;10.164;2022-09-09T02:14:31;8.65;;;2.25;;
73675;SDS011;61975;48.660;10.164;2022-09-09T02:17:03;4.05;;;1.80;;
73675;SDS011;61975;48.660;10.164;2022-09-09T02:19:39;4.47;;;1.67;;
73675;SDS011;61975;48.660;10.164;2022-09-09T02:22:11;4.18;;;1.77;;
73675;SDS011;61975;48.660;10.164;2022-09-09T02:24:37;5.40;;;1.90;;
73675;SDS011;61975;48.660;10.164;2022-09-09T02:27:06;4.45;;;1.98;;
73675;SDS011;61975;48.660;10.164;2022-09-09T02:29:38;6.17;;;1.80;;
73675;SDS011;61975;48.660;10.164;2022-09-09T02:32:14;3.60;;;1.90;;
73675;SDS011;61975;48.660;10.164;2022-09-09T02:34:43;6.72;;;1.85;;
73675;SDS011;61975;48.660;10.164;2022-09-09T02:37:13;5.50;;;1.80;;
73675;SDS011;61975;48.660;10.164;2022-09-09T02:39:42;5.10;;;2.00;;
73675;SDS011;61975;48.660;10.164;2022-09-09T02:42:07;4.43;;;1.80;;
73675;SDS011;61975;48.660;10.164;2022-09-09T02:44:33;3.80;;;1.63;;
73675;SDS011;61975;48.660;10.164;2022-09-09T02:49:27;3.47;;;1.63;;
73675;SDS011;61975;48.660;10.164;2022-09-09T02:52:06;3.90;;;1.80;;
73675;SDS011;61975;48.660;10.164;2022-09-09T02:54:39;3.97;;;1.83;;
73675;SDS011;61975;48.660;10.164;2022-09-09T02:57:11;5.50;;;1.70;;
73675;SDS011;61975;48.660;10.164;2022-09-09T02:59:39;3.35;;;1.60;;
73675;SDS011;61975;48.660;10.164;2022-09-09T03:02:05;4.28;;;1.88;;
73675;SDS011;61975;48.660;10.164;2022-09-09T03:04:31;4.05;;;1.67;;
73675;SDS011;61975;48.660;10.164;2022-09-09T03:06:57;3.60;;;1.63;;
73675;SDS011;61975;48.660;10.164;2022-09-09T03:09:23;4.38;;;1.60;;
73675;SDS011;61975;48.660;10.164;2022-09-09T03:11:49;3.83;;;1.80;;
73675;SDS011;61975;48.660;10.164;2022-09-09T03:14:15;5.95;;;1.73;;
73675;SDS011;61975;48.660;10.164;2022-09-09T03:16:41;4.75;;;1.80;;
73675;SDS011;61975;48.660;10.164;2022-09-09T03:19:11;3.40;;;1.90;;
73675;SDS011;61975;48.660;10.164;2022-09-09T03:21:36;4.70;;;1.90;;
73675;SDS011;61975;48.660;10.164;2022-09-09T03:24:02;3.93;;;1.87;;
73675;SDS011;61975;48.660;10.164;2022-09-09T03:26:28;4.80;;;1.70;;
73675;SDS011;61975;48.660;10.164;2022-09-09T03:28:55;4.07;;;1.70;;
73675;SDS011;61975;48.660;10.164;2022-09-09T03:31:21;4.33;;;1.60;;
73675;SDS011;61975;48.660;10.164;2022-09-09T03:33:46;5.17;;;1.87;;
73675;SDS011;61975;48.660;10.164;2022-09-09T03:36:13;3.75;;;1.70;;
73675;SDS011;61975;48.660;10.164;2022-09-09T03:38:39;4.85;;;2.00;;
73675;SDS011;61975;48.660;10.164;2022-09-09T03:41:04;5.03;;;2.00;;
73675;SDS011;61975;48.660;10.164;2022-09-09T03:43:33;5.80;;;1.90;;
73675;SDS011;61975;48.660;10.164;2022-09-09T03:45:58;5.35;;;1.75;;
73675;SDS011;61975;48.660;10.164;2022-09-09T03:48:24;4.67;;;1.50;;
73675;SDS011;61975;48.660;10.164;2022-09-09T03:50:51;3.80;;;1.90;;
73675;SDS011;61975;48.660;10.164;2022-09-09T03:53:21;4.10;;;1.70;;
73675;SDS011;61975;48.660;10.164;2022-09-09T03:55:48;4.35;;;1.83;;
73675;SDS011;61975;48.660;10.164;2022-09-09T03:58:17;4.80;;;1.90;;
73675;SDS011;61975;48.660;10.164;2022-09-09T04:00:44;3.53;;;1.70;;
73675;SDS011;61975;48.660;10.164;2022-09-09T04:03:18;5.43;;;1.98;;
73675;SDS011;61975;48.660;10.164;2022-09-09T04:05:43;4.93;;;1.60;;
73675;SDS011;61975;48.660;10.164;2022-09-09T04:08:09;4.63;;;1.77;;
73675;SDS011;61975;48.660;10.164;2022-09-09T04:10:35;5.63;;;1.67;;
73675;SDS011;61975;48.660;10.164;2022-09-09T04:13:02;4.03;;;1.70;;
73675;SDS011;61975;48.660;10.164;2022-09-09T04:15:30;3.97;;;1.70;;
73675;SDS011;61975;48.660;10.164;2022-09-09T04:17:56;5.30;;;1.80;;
73675;SDS011;61975;48.660;10.164;2022-09-09T04:20:22;6.00;;;1.57;;
73675;SDS011;61975;48.660;10.164;2022-09-09T04:22:47;6.43;;;1.70;;
73675;SDS011;61975;48.660;10.164;2022-09-09T04:25:14;4.38;;;1.60;;
73675;SDS011;61975;48.660;10.164;2022-09-09T04:27:39;4.47;;;1.50;;
73675;SDS011;61975;48.660;10.164;2022-09-09T04:30:05;5.93;;;1.90;;
73675;SDS011;61975;48.660;10.164;2022-09-09T04:32:32;4.10;;;1.65;;
73675;SDS011;61975;48.660;10.164;2022-09-09T04:35:01;5.95;;;2.22;;
73675;SDS011;61975;48.660;10.164;2022-09-09T04:37:27;4.57;;;2.00;;
73675;SDS011;61975;48.660;10.164;2022-09-09T04:39:53;4.25;;;1.98;;
73675;SDS011;61975;48.660;10.164;2022-09-09T04:42:18;5.40;;;2.00;;
73675;SDS011;61975;48.660;10.164;2022-09-09T04:44:44;5.17;;;1.77;;
73675;SDS011;61975;48.660;10.164;2022-09-09T04:47:10;4.63;;;1.95;;
73675;SDS011;61975;48.660;10.164;2022-09-09T04:49:36;6.90;;;1.95;;
73675;SDS011;61975;48.660;10.164;2022-09-09T04:52:02;6.23;;;1.87;;
73675;SDS011;61975;48.660;10.164;2022-09-09T04:54:28;6.22;;;2.10;;
73675;SDS011;61975;48.660;10.164;2022-09-09T04:56:54;5.63;;;2.03;;
73675;SDS011;61975;48.660;10.164;2022-09-09T04:59:20;7.30;;;2.07;;
73675;SDS011;61975;48.660;10.164;2022-09-09T05:01:46;4.75;;;2.20;;
73675;SDS011;61975;48.660;10.164;2022-09-09T05:04:13;5.32;;;2.10;;
73675;SDS011;61975;48.660;10.164;2022-09-09T05:06:40;7.03;;;2.47;;
73675;SDS011;61975;48.660;10.164;2022-09-09T05:09:05;5.80;;;2.03;;
73675;SDS011;61975;48.660;10.164;2022-09-09T05:11:31;5.13;;;1.93;;
73675;SDS011;61975;48.660;10.164;2022-09-09T05:14:01;4.82;;;1.90;;
73675;SDS011;61975;48.660;10.164;2022-09-09T05:16:26;4.67;;;2.00;;
73675;SDS011;61975;48.660;10.164;2022-09-09T05:18:52;3.58;;;1.75;;
73675;SDS011;61975;48.660;10.164;2022-09-09T05:21:18;4.90;;;1.83;;
73675;SDS011;61975;48.660;10.164;2022-09-09T05:23:45;4.28;;;1.75;;
73675;SDS011;61975;48.660;10.164;2022-09-09T05:26:14;3.97;;;1.80;;
73675;SDS011;61975;48.660;10.164;2022-09-09T05:28:42;6.60;;;1.90;;
73675;SDS011;61975;48.660;10.164;2022-09-09T05:31:08;3.78;;;2.00;;
73675;SDS011;61975;48.660;10.164;2022-09-09T05:33:36;4.03;;;1.80;;
73675;SDS011;61975;48.660;10.164;2022-09-09T05:36:07;3.83;;;2.13;;
73675;SDS011;61975;48.660;10.164;2022-09-09T05:38:33;4.65;;;1.95;;
73675;SDS011;61975;48.660;10.164;2022-09-09T05:41:00;4.63;;;2.05;;
73675;SDS011;61975;48.660;10.164;2022-09-09T05:43:26;5.75;;;1.88;;
73675;SDS011;61975;48.660;10.164;2022-09-09T05:46:02;4.33;;;2.00;;
73675;SDS011;61975;48.660;10.164;2022-09-09T05:48:39;4.15;;;1.90;;
73675;SDS011;61975;48.660;10.164;2022-09-09T05:51:11;4.55;;;2.05;;
73675;SDS011;61975;48.660;10.164;2022-09-09T05:53:40;5.32;;;2.00;;
73675;SDS011;61975;48.660;10.164;2022-09-09T05:56:14;5.37;;;1.90;;
73675;SDS011;61975;48.660;10.164;2022-09-09T05:58:43;5.00;;;2.10;;
73675;SDS011;61975;48.660;10.164;2022-09-09T06:01:13;4.60;;;2.40;;
73675;SDS011;61975;48.660;10.164;2022-09-09T06:03:41;4.97;;;2.70;;
73675;SDS011;61975;48.660;10.164;2022-09-09T06:06:12;5.88;;;2.60;;
73675;SDS011;61975;48.660;10.164;2022-09-09T06:09:05;5.00;;;2.53;;
73675;SDS011;61975;48.660;10.164;2022-09-09T06:11:34;6.13;;;2.50;;
73675;SDS011;61975;48.660;10.164;2022-09-09T06:14:01;7.35;;;2.45;;
73675;SDS011;61975;48.660;10.164;2022-09-09T06:16:28;4.65;;;2.65;;
73675;SDS011;61975;48.660;10.164;2022-09-09T06:18:54;4.00;;;2.13;;
73675;SDS011;61975;48.660;10.164;2022-09-09T06:21:39;4.90;;;1.93;;
73675;SDS011;61975;48.660;10.164;2022-09-09T06:24:06;4.95;;;1.83;;
73675;SDS011;61975;48.660;10.164;2022-09-09T06:26:36;4.22;;;2.10;;
73675;SDS011;61975;48.660;10.164;2022-09-09T06:29:05;5.13;;;2.20;;
73675;SDS011;61975;48.660;10.164;2022-09-09T06:31:31;5.23;;;2.40;;
73675;SDS011;61975;48.660;10.164;2022-09-09T06:33:59;4.43;;;2.00;;
73675;SDS011;61975;48.660;10.164;2022-09-09T06:38:58;3.80;;;1.90;;
73675;SDS011;61975;48.660;10.164;2022-09-09T06:41:25;4.70;;;1.92;;
73675;SDS011;61975;48.660;10.164;2022-09-09T06:43:54;4.20;;;1.80;;
73675;SDS011;61975;48.660;10.164;2022-09-09T06:46:26;4.57;;;1.90;;
73675;SDS011;61975;48.660;10.164;2022-09-09T06:48:53;3.05;;;1.70;;
73675;SDS011;61975;48.660;10.164;2022-09-09T06:51:24;3.60;;;1.70;;
73675;SDS011;61975;48.660;10.164;2022-09-09T06:54:00;6.80;;;1.88;;
73675;SDS011;61975;48.660;10.164;2022-09-09T06:56:37;6.20;;;1.67;;
73675;SDS011;61975;48.660;10.164;2022-09-09T06:59:05;5.15;;;1.65;;
73675;SDS011;61975;48.660;10.164;2022-09-09T07:01:35;6.63;;;2.15;;
73675;SDS011;61975;48.660;10.164;2022-09-09T07:04:02;4.27;;;2.10;;
73675;SDS011;61975;48.660;10.164;2022-09-09T07:06:34;5.50;;;2.20;;
73675;SDS011;61975;48.660;10.164;2022-09-09T07:09:02;5.68;;;2.03;;
73675;SDS011;61975;48.660;10.164;2022-09-09T07:11:31;5.30;;;1.80;;
73675;SDS011;61975;48.660;10.164;2022-09-09T07:13:59;6.47;;;1.95;;
73675;SDS011;61975;48.660;10.164;2022-09-09T07:16:25;3.63;;;1.93;;
73675;SDS011;61975;48.660;10.164;2022-09-09T07:18:52;6.20;;;2.00;;
73675;SDS011;61975;48.660;10.164;2022-09-09T07:21:22;4.32;;;1.70;;
73675;SDS011;61975;48.660;10.164;2022-09-09T07:23:49;7.40;;;2.15;;
73675;SDS011;61975;48.660;10.164;2022-09-09T07:26:19;6.47;;;2.10;;
73675;SDS011;61975;48.660;10.164;2022-09-09T07:28:46;4.68;;;1.90;;
73675;SDS011;61975;48.660;10.164;2022-09-09T07:31:13;6.35;;;2.35;;
73675;SDS011;61975;48.660;10.164;2022-09-09T07:33:41;6.43;;;2.10;;
73675;SDS011;61975;48.660;10.164;2022-09-09T07:38:38;4.67;;;2.10;;
73675;SDS011;61975;48.660;10.164;2022-09-09T07:41:16;6.10;;;2.20;;
73675;SDS011;61975;48.660;10.164;2022-09-09T07:44:21;7.05;;;2.03;;
73675;SDS011;61975;48.660;10.164;2022-09-09T07:46:47;6.20;;;2.20;;
73675;SDS011;61975;48.660;10.164;2022-09-09T07:49:14;8.10;;;2.37;;
73675;SDS011;61975;48.660;10.164;2022-09-09T07:51:43;6.57;;;2.00;;
73675;SDS011;61975;48.660;10.164;2022-09-09T07:54:11;4.90;;;1.90;;
73675;SDS011;61975;48.660;10.164;2022-09-09T07:56:39;5.72;;;2.15;;
73675;SDS011;61975;48.660;10.164;2022-09-09T07:59:05;4.47;;;1.90;;
73675;SDS011;61975;48.660;10.164;2022-09-09T08:04:02;4.57;;;1.75;;
73675;SDS011;61975;48.660;10.164;2022-09-09T08:06:30;3.90;;;1.85;;
73675;SDS011;61975;48.660;10.164;2022-09-09T08:08:58;5.90;;;1.98;;
73675;SDS011;61975;48.660;10.164;2022-09-09T08:11:24;4.83;;;1.80;;
73675;SDS011;61975;48.660;10.164;2022-09-09T08:13:52;6.18;;;2.35;;
73675;SDS011;61975;48.660;10.164;2022-09-09T08:16:19;4.60;;;1.70;;
73675;SDS011;61975;48.660;10.164;2022-09-09T08:18:49;4.97;;;1.70;;
73675;SDS011;61975;48.660;10.164;2022-09-09T08:21:23;4.07;;;1.60;;
73675;SDS011;61975;48.660;10.164;2022-09-09T08:23:50;4.15;;;1.80;;
73675;SDS011;61975;48.660;10.164;2022-09-09T08:26:18;4.38;;;1.60;;
73675;SDS011;61975;48.660;10.164;2022-09-09T08:28:49;5.80;;;1.70;;
73675;SDS011;61975;48.660;10.164;2022-09-09T08:31:20;5.72;;;1.80;;
73675;SDS011;61975;48.660;10.164;2022-09-09T08:33:48;7.30;;;1.90;;
73675;SDS011;61975;48.660;10.164;2022-09-09T08:36:15;5.88;;;2.00;;
73675;SDS011;61975;48.660;10.164;2022-09-09T08:38:47;6.18;;;2.00;;
73675;SDS011;61975;48.660;10.164;2022-09-09T08:51:57;5.25;;;1.50;;
73675;SDS011;61975;48.660;10.164;2022-09-09T08:54:23;5.67;;;2.10;;
73675;SDS011;61975;48.660;10.164;2022-09-09T08:56:58;4.90;;;1.65;;
73675;SDS011;61975;48.660;10.164;2022-09-09T08:59:23;4.10;;;1.70;;
73675;SDS011;61975;48.660;10.164;2022-09-09T09:02:08;4.20;;;1.50;;
73675;SDS011;61975;48.660;10.164;2022-09-09T09:04:48;4.32;;;1.45;;
73675;SDS011;61975;48.660;10.164;2022-09-09T09:12:55;5.32;;;1.50;;
73675;SDS011;61975;48.660;10.164;2022-09-09T09:15:25;4.57;;;1.40;;
73675;SDS011;61975;48.660;10.164;2022-09-09T09:17:55;5.18;;;1.20;;
73675;SDS011;61975;48.660;10.164;2022-09-09T09:21:07;4.80;;;1.60;;
73675;SDS011;61975;48.660;10.164;2022-09-09T09:23:16;2.97;;;1.30;;
73675;SDS011;61975;48.660;10.164;2022-09-09T09:25:47;4.13;;;1.48;;
73675;SDS011;61975;48.660;10.164;2022-09-09T09:28:19;5.13;;;1.50;;
73675;SDS011;61975;48.660;10.164;2022-09-09T09:33:25;3.63;;;1.30;;
73675;SDS011;61975;48.660;10.164;2022-09-09T09:35:57;3.08;;;1.30;;
73675;SDS011;61975;48.660;10.164;2022-09-09T09:38:25;4.60;;;1.40;;
73675;SDS011;61975;48.660;10.164;2022-09-09T09:40:53;3.13;;;1.10;;
73675;SDS011;61975;48.660;10.164;2022-09-09T09:43:29;3.33;;;1.25;;
73675;SDS011;61975;48.660;10.164;2022-09-09T09:45:56;3.80;;;1.30;;
73675;SDS011;61975;48.660;10.164;2022-09-09T09:48:26;3.42;;;1.20;;
73675;SDS011;61975;48.660;10.164;2022-09-09T09:50:59;4.05;;;1.20;;
73675;SDS011;61975;48.660;10.164;2022-09-09T09:53:31;5.03;;;1.10;;
73675;SDS011;61975;48.660;10.164;2022-09-09T09:56:05;3.63;;;1.10;;
73675;SDS011;61975;48.660;10.164;2022-09-09T10:01:24;5.63;;;1.13;;
73675;SDS011;61975;48.660;10.164;2022-09-09T10:03:51;4.90;;;1.30;;
73675;SDS011;61975;48.660;10.164;2022-09-09T10:06:29;5.97;;;1.27;;
73675;SDS011;61975;48.660;10.164;2022-09-09T10:08:55;4.90;;;1.40;;
73675;SDS011;61975;48.660;10.164;2022-09-09T10:11:32;4.78;;;1.30;;
73675;SDS011;61975;48.660;10.164;2022-09-09T10:19:19;4.05;;;1.20;;
73675;SDS011;61975;48.660;10.164;2022-09-09T10:30:09;3.58;;;1.10;;
73675;SDS011;61975;48.660;10.164;2022-09-09T10:32:40;3.58;;;1.20;;
73675;SDS011;61975;48.660;10.164;2022-09-09T10:35:22;4.70;;;1.10;;
73675;SDS011;61975;48.660;10.164;2022-09-09T10:52:06;5.65;;;1.30;;
73675;SDS011;61975;48.660;10.164;2022-09-09T10:57:29;3.42;;;1.10;;
73675;SDS011;61975;48.660;10.164;2022-09-09T11:00:05;3.08;;;1.10;;
73675;SDS011;61975;48.660;10.164;2022-09-09T11:02:39;4.20;;;1.40;;
73675;SDS011;61975;48.660;10.164;2022-09-09T11:05:10;3.78;;;1.10;;
73675;SDS011;61975;48.660;10.164;2022-09-09T11:10:40;3.60;;;1.00;;
73675;SDS011;61975;48.660;10.164;2022-09-09T11:18:46;3.75;;;1.08;;
73675;SDS011;61975;48.660;10.164;2022-09-09T11:21:23;4.37;;;1.00;;
73675;SDS011;61975;48.660;10.164;2022-09-09T11:23:56;3.30;;;0.90;;
73675;SDS011;61975;48.660;10.164;2022-09-09T11:26:32;2.60;;;0.90;;
73675;SDS011;61975;48.660;10.164;2022-09-09T11:37:14;3.33;;;0.90;;
73675;SDS011;61975;48.660;10.164;2022-09-09T11:42:29;5.25;;;0.80;;
73675;SDS011;61975;48.660;10.164;2022-09-09T11:44:55;3.50;;;0.80;;
73675;SDS011;61975;48.660;10.164;2022-09-09T11:47:29;3.95;;;0.70;;
73675;SDS011;61975;48.660;10.164;2022-09-09T11:55:26;2.40;;;0.70;;
73675;SDS011;61975;48.660;10.164;2022-09-09T11:58:02;2.72;;;0.60;;
73675;SDS011;61975;48.660;10.164;2022-09-09T12:03:00;3.13;;;1.00;;
73675;SDS011;61975;48.660;10.164;2022-09-09T12:05:36;4.57;;;0.90;;
73675;SDS011;61975;48.660;10.164;2022-09-09T12:08:05;3.58;;;0.75;;
73675;SDS011;61975;48.660;10.164;2022-09-09T12:10:35;4.07;;;0.80;;
73675;SDS011;61975;48.660;10.164;2022-09-09T12:13:19;3.78;;;0.80;;
73675;SDS011;61975;48.660;10.164;2022-09-09T12:15:52;3.13;;;0.85;;
73675;SDS011;61975;48.660;10.164;2022-09-09T12:21:40;3.42;;;0.80;;
73675;SDS011;61975;48.660;10.164;2022-09-09T12:34:54;2.60;;;0.80;;
73675;SDS011;61975;48.660;10.164;2022-09-09T12:37:27;3.97;;;0.80;;
73675;SDS011;61975;48.660;10.164;2022-09-09T12:39:58;2.50;;;0.60;;
73675;SDS011;61975;48.660;10.164;2022-09-09T12:42:25;2.28;;;0.57;;
73675;SDS011;61975;48.660;10.164;2022-09-09T12:44:55;3.20;;;0.70;;
73675;SDS011;61975;48.660;10.164;2022-09-09T12:47:23;2.83;;;0.60;;
73675;SDS011;61975;48.660;10.164;2022-09-09T12:50:15;2.10;;;0.60;;
73675;SDS011;61975;48.660;10.164;2022-09-09T12:52:47;2.80;;;0.70;;
73675;SDS011;61975;48.660;10.164;2022-09-09T12:55:18;2.47;;;0.70;;
73675;SDS011;61975;48.660;10.164;2022-09-09T12:57:46;2.83;;;0.90;;
73675;SDS011;61975;48.660;10.164;2022-09-09T13:00:16;2.17;;;0.70;;
73675;SDS011;61975;48.660;10.164;2022-09-09T13:02:48;3.37;;;0.80;;
73675;SDS011;61975;48.660;10.164;2022-09-09T13:05:20;2.78;;;0.70;;
73675;SDS011;61975;48.660;10.164;2022-09-09T13:07:50;2.78;;;0.80;;
73675;SDS011;61975;48.660;10.164;2022-09-09T13:10:24;2.53;;;0.77;;
73675;SDS011;61975;48.660;10.164;2022-09-09T13:12:54;3.15;;;0.80;;
73675;SDS011;61975;48.660;10.164;2022-09-09T13:15:23;3.47;;;1.00;;
73675;SDS011;61975;48.660;10.164;2022-09-09T13:17:55;6.20;;;1.00;;
73675;SDS011;61975;48.660;10.164;2022-09-09T13:20:25;2.78;;;0.90;;
73675;SDS011;61975;48.660;10.164;2022-09-09T13:22:52;4.67;;;0.93;;
73675;SDS011;61975;48.660;10.164;2022-09-09T13:25:26;3.03;;;1.00;;
73675;SDS011;61975;48.660;10.164;2022-09-09T13:30:30;4.00;;;0.80;;
73675;SDS011;61975;48.660;10.164;2022-09-09T13:33:04;3.53;;;0.70;;
73675;SDS011;61975;48.660;10.164;2022-09-09T13:35:30;3.73;;;1.00;;
73675;SDS011;61975;48.660;10.164;2022-09-09T13:37:56;3.08;;;1.00;;
73675;SDS011;61975;48.660;10.164;2022-09-09T13:40:23;3.80;;;0.90;;
73675;SDS011;61975;48.660;10.164;2022-09-09T13:42:55;3.58;;;0.90;;
73675;SDS011;61975;48.660;10.164;2022-09-09T13:45:22;3.35;;;0.80;;
73675;SDS011;61975;48.660;10.164;2022-09-09T13:47:53;3.63;;;0.87;;
73675;SDS011;61975;48.660;10.164;2022-09-09T13:52:49;2.78;;;0.80;;
73675;SDS011;61975;48.660;10.164;2022-09-09T13:55:18;4.05;;;0.90;;
73675;SDS011;61975;48.660;10.164;2022-09-09T13:57:53;1.98;;;0.65;;
73675;SDS011;61975;48.660;10.164;2022-09-09T14:00:25;2.20;;;0.70;;
73675;SDS011;61975;48.660;10.164;2022-09-09T14:02:53;3.22;;;0.70;;
73675;SDS011;61975;48.660;10.164;2022-09-09T14:05:20;2.75;;;0.88;;
73675;SDS011;61975;48.660;10.164;2022-09-09T14:07:47;2.95;;;0.70;;
73675;SDS011;61975;48.660;10.164;2022-09-09T14:10:13;3.75;;;1.00;;
73675;SDS011;61975;48.660;10.164;2022-09-09T14:12:39;3.00;;;0.70;;
73675;SDS011;61975;48.660;10.164;2022-09-09T14:15:04;4.47;;;0.87;;
73675;SDS011;61975;48.660;10.164;2022-09-09T14:17:31;3.28;;;1.13;;
73675;SDS011;61975;48.660;10.164;2022-09-09T14:19:57;2.53;;;0.90;;
73675;SDS011;61975;48.660;10.164;2022-09-09T14:22:23;4.10;;;1.00;;
73675;SDS011;61975;48.660;10.164;2022-09-09T14:24:49;2.83;;;0.82;;
73675;SDS011;61975;48.660;10.164;2022-09-09T14:27:16;2.90;;;0.70;;
73675;SDS011;61975;48.660;10.164;2022-09-09T14:29:41;3.10;;;0.70;;
73675;SDS011;61975;48.660;10.164;2022-09-09T14:32:08;3.35;;;0.80;;
73675;SDS011;61975;48.660;10.164;2022-09-09T14:34:34;5.20;;;0.80;;
73675;SDS011;61975;48.660;10.164;2022-09-09T14:37:00;4.47;;;0.70;;
73675;SDS011;61975;48.660;10.164;2022-09-09T14:39:25;3.93;;;0.90;;
73675;SDS011;61975;48.660;10.164;2022-09-09T14:41:51;2.38;;;0.70;;
73675;SDS011;61975;48.660;10.164;2022-09-09T14:44:16;3.77;;;1.10;;
73675;SDS011;61975;48.660;10.164;2022-09-09T14:46:42;3.57;;;0.83;;
73675;SDS011;61975;48.660;10.164;2022-09-09T14:49:07;3.85;;;1.10;;
73675;SDS011;61975;48.660;10.164;2022-09-09T14:51:33;2.77;;;0.80;;
73675;SDS011;61975;48.660;10.164;2022-09-09T14:53:59;3.53;;;0.75;;
73675;SDS011;61975;48.660;10.164;2022-09-09T14:56:25;2.83;;;0.80;;
73675;SDS011;61975;48.660;10.164;2022-09-09T14:58:54;4.53;;;0.80;;
73675;SDS011;61975;48.660;10.164;2022-09-09T15:01:21;4.45;;;0.80;;
73675;SDS011;61975;48.660;10.164;2022-09-09T15:03:49;2.80;;;0.80;;
73675;SDS011;61975;48.660;10.164;2022-09-09T15:06:16;2.92;;;0.80;;
73675;SDS011;61975;48.660;10.164;2022-09-09T15:08:42;3.05;;;1.00;;
73675;SDS011;61975;48.660;10.164;2022-09-09T15:11:10;3.13;;;0.80;;
73675;SDS011;61975;48.660;10.164;2022-09-09T15:13:37;3.53;;;0.80;;
73675;SDS011;61975;48.660;10.164;2022-09-09T15:16:07;2.50;;;0.70;;
73675;SDS011;61975;48.660;10.164;2022-09-09T15:18:38;4.07;;;0.90;;
73675;SDS011;61975;48.660;10.164;2022-09-09T15:21:08;4.03;;;0.88;;
73675;SDS011;61975;48.660;10.164;2022-09-09T15:23:35;3.08;;;0.80;;
73675;SDS011;61975;48.660;10.164;2022-09-09T15:26:01;3.10;;;0.80;;
73675;SDS011;61975;48.660;10.164;2022-09-09T15:28:27;3.03;;;0.70;;
73675;SDS011;61975;48.660;10.164;2022-09-09T15:30:53;3.17;;;0.83;;
73675;SDS011;61975;48.660;10.164;2022-09-09T15:33:20;3.47;;;0.80;;
73675;SDS011;61975;48.660;10.164;2022-09-09T15:35:46;2.97;;;0.70;;
73675;SDS011;61975;48.660;10.164;2022-09-09T15:38:12;2.92;;;0.80;;
73675;SDS011;61975;48.660;10.164;2022-09-09T15:40:38;3.10;;;0.80;;
73675;SDS011;61975;48.660;10.164;2022-09-09T15:43:05;3.47;;;0.80;;
73675;SDS011;61975;48.660;10.164;2022-09-09T15:45:31;3.10;;;0.70;;
73675;SDS011;61975;48.660;10.164;2022-09-09T15:47:58;3.05;;;0.85;;
73675;SDS011;61975;48.660;10.164;2022-09-09T15:50:27;1.93;;;0.60;;
73675;SDS011;61975;48.660;10.164;2022-09-09T15:52:55;4.25;;;0.93;;
73675;SDS011;61975;48.660;10.164;2022-09-09T15:55:20;2.90;;;0.80;;
73675;SDS011;61975;48.660;10.164;2022-09-09T15:57:46;3.03;;;0.70;;
73675;SDS011;61975;48.660;10.164;2022-09-09T16:00:12;4.27;;;0.60;;
73675;SDS011;61975;48.660;10.164;2022-09-09T16:02:38;3.45;;;0.77;;
73675;SDS011;61975;48.660;10.164;2022-09-09T16:05:04;3.65;;;1.08;;
73675;SDS011;61975;48.660;10.164;2022-09-09T16:07:30;4.73;;;1.13;;
73675;SDS011;61975;48.660;10.164;2022-09-09T16:09:56;4.57;;;0.80;;
73675;SDS011;61975;48.660;10.164;2022-09-09T16:12:21;2.80;;;0.67;;
73675;SDS011;61975;48.660;10.164;2022-09-09T16:14:46;3.33;;;0.97;;
73675;SDS011;61975;48.660;10.164;2022-09-09T16:17:12;2.43;;;0.73;;
73675;SDS011;61975;48.660;10.164;2022-09-09T16:19:37;4.57;;;2.10;;
73675;SDS011;61975;48.660;10.164;2022-09-09T16:22:03;3.63;;;0.80;;
73675;SDS011;61975;48.660;10.164;2022-09-09T16:24:29;2.45;;;0.68;;
73675;SDS011;61975;48.660;10.164;2022-09-09T16:26:54;3.50;;;0.80;;
73675;SDS011;61975;48.660;10.164;2022-09-09T16:29:20;3.50;;;1.20;;
73675;SDS011;61975;48.660;10.164;2022-09-09T16:31:47;3.75;;;1.00;;
73675;SDS011;61975;48.660;10.164;2022-09-09T16:34:13;2.60;;;0.87;;
73675;SDS011;61975;48.660;10.164;2022-09-09T16:36:40;3.05;;;0.80;;
73675;SDS011;61975;48.660;10.164;2022-09-09T16:39:08;5.10;;;2.28;;
73675;SDS011;61975;48.660;10.164;2022-09-09T16:41:37;6.93;;;4.57;;
73675;SDS011;61975;48.660;10.164;2022-09-09T16:44:04;7.35;;;2.60;;
73675;SDS011;61975;48.660;10.164;2022-09-09T16:46:32;3.43;;;1.57;;
73675;SDS011;61975;48.660;10.164;2022-09-09T16:49:00;4.20;;;1.40;;
73675;SDS011;61975;48.660;10.164;2022-09-09T16:51:28;4.22;;;1.58;;
73675;SDS011;61975;48.660;10.164;2022-09-09T16:53:56;3.67;;;1.10;;
73675;SDS011;61975;48.660;10.164;2022-09-09T16:56:25;3.33;;;1.13;;
73675;SDS011;61975;48.660;10.164;2022-09-09T17:01:42;3.42;;;0.95;;
73675;SDS011;61975;48.660;10.164;2022-09-09T17:04:10;3.97;;;0.80;;
73675;SDS011;61975;48.660;10.164;2022-09-09T17:06:38;2.70;;;0.80;;
73675;SDS011;61975;48.660;10.164;2022-09-09T17:09:06;3.50;;;0.55;;
73675;SDS011;61975;48.660;10.164;2022-09-09T17:11:36;3.27;;;1.27;;
73675;SDS011;61975;48.660;10.164;2022-09-09T17:14:03;3.75;;;1.80;;
73675;SDS011;61975;48.660;10.164;2022-09-09T17:16:31;3.22;;;0.80;;
73675;SDS011;61975;48.660;10.164;2022-09-09T17:18:58;8.52;;;5.10;;
73675;SDS011;61975;48.660;10.164;2022-09-09T17:21:26;12.45;;;8.48;;
73675;SDS011;61975;48.660;10.164;2022-09-09T17:23:53;9.40;;;6.80;;
73675;SDS011;61975;48.660;10.164;2022-09-09T17:26:20;6.63;;;3.33;;